< < Back
Terminal Aerodrome Forecast


Current Version              Previous Versions:   1  2  3  4  5  6  7  8  9  

Terminal Aerodrome Forecast

786
FTUS42 KMLB 291700
TAFDAB
TAF
KDAB 291721Z 2918/3018 12007KT P6SM VCSH SCT035 BKN070
      TEMPO 2920/2923 TS BKN035CB BKN060
     FM300100 19004KT P6SM SCT060 BKN200
     FM300400 VRB02KT P6SM FEW040 SCT250=

Latest METAR

474
SAUS80 KWBC 290400 RRF
MTRDAB
METAR KDAB 300353Z 21005KT 10SM SCT150 24/22 A3012 RMK AO2 SLP198 OCNL
LTGIC DSNT SE CB DSNT SE T02390222 $


USA.gov is the U.S. government's official web portal to all federal, state and local government web resources and services.